sensor_id;sensor_type;location;lat;lon;timestamp;temperature;humidity
30893;DHT22;17595;50.884;4.346;2022-10-20T00:01:27;15.80;99.90
30893;DHT22;17595;50.884;4.346;2022-10-20T00:03:53;15.80;99.90
30893;DHT22;17595;50.884;4.346;2022-10-20T00:06:24;15.80;99.90
30893;DHT22;17595;50.884;4.346;2022-10-20T00:08:51;15.90;99.90
30893;DHT22;17595;50.884;4.346;2022-10-20T00:11:19;15.80;99.90
30893;DHT22;17595;50.884;4.346;2022-10-20T00:13:47;15.90;99.90
30893;DHT22;17595;50.884;4.346;2022-10-20T00:16:13;15.90;99.90
30893;DHT22;17595;50.884;4.346;2022-10-20T00:18:39;15.90;99.90
30893;DHT22;17595;50.884;4.346;2022-10-20T00:21:07;15.80;99.90
30893;DHT22;17595;50.884;4.346;2022-10-20T00:23:33;15.70;99.90
30893;DHT22;17595;50.884;4.346;2022-10-20T00:26:01;15.80;99.90
30893;DHT22;17595;50.884;4.346;2022-10-20T00:28:27;15.70;99.90
30893;DHT22;17595;50.884;4.346;2022-10-20T00:30:54;15.70;99.90
30893;DHT22;17595;50.884;4.346;2022-10-20T00:33:21;15.70;99.90
30893;DHT22;17595;50.884;4.346;2022-10-20T00:35:46;15.70;99.90
30893;DHT22;17595;50.884;4.346;2022-10-20T00:38:12;15.80;99.90
30893;DHT22;17595;50.884;4.346;2022-10-20T00:40:38;15.60;99.90
30893;DHT22;17595;50.884;4.346;2022-10-20T00:43:03;15.60;99.90
30893;DHT22;17595;50.884;4.346;2022-10-20T00:45:29;15.60;99.90
30893;DHT22;17595;50.884;4.346;2022-10-20T00:48:01;15.60;99.90
30893;DHT22;17595;50.884;4.346;2022-10-20T00:50:37;15.50;99.90
30893;DHT22;17595;50.884;4.346;2022-10-20T00:55:34;15.40;99.90
30893;DHT22;17595;50.884;4.346;2022-10-20T00:58:00;15.40;99.90
30893;DHT22;17595;50.884;4.346;2022-10-20T01:00:27;15.40;99.90
30893;DHT22;17595;50.884;4.346;2022-10-20T01:02:55;15.40;99.90
30893;DHT22;17595;50.884;4.346;2022-10-20T01:07:48;15.30;99.90
30893;DHT22;17595;50.884;4.346;2022-10-20T01:10:14;15.20;99.90
30893;DHT22;17595;50.884;4.346;2022-10-20T01:20:47;15.30;99.90
30893;DHT22;17595;50.884;4.346;2022-10-20T01:29:00;15.20;99.90
30893;DHT22;17595;50.884;4.346;2022-10-20T01:34:35;15.20;99.90
30893;DHT22;17595;50.884;4.346;2022-10-20T01:39:51;15.20;99.90
30893;DHT22;17595;50.884;4.346;2022-10-20T01:42:23;15.20;99.90
30893;DHT22;17595;50.884;4.346;2022-10-20T01:44:52;15.40;99.90
30893;DHT22;17595;50.884;4.346;2022-10-20T01:47:20;15.40;99.90
30893;DHT22;17595;50.884;4.346;2022-10-20T01:49:47;15.20;99.90
30893;DHT22;17595;50.884;4.346;2022-10-20T02:08:11;15.20;99.90
30893;DHT22;17595;50.884;4.346;2022-10-20T02:10:45;15.10;99.90
30893;DHT22;17595;50.884;4.346;2022-10-20T02:13:12;15.20;99.90
30893;DHT22;17595;50.884;4.346;2022-10-20T02:15:42;15.20;99.90
30893;DHT22;17595;50.884;4.346;2022-10-20T02:18:10;15.20;99.90
30893;DHT22;17595;50.884;4.346;2022-10-20T02:20:42;15.20;99.90
30893;DHT22;17595;50.884;4.346;2022-10-20T02:23:08;15.30;99.90
30893;DHT22;17595;50.884;4.346;2022-10-20T02:25:35;15.30;99.90
30893;DHT22;17595;50.884;4.346;2022-10-20T02:28:03;15.40;99.90
30893;DHT22;17595;50.884;4.346;2022-10-20T02:30:30;15.40;99.90
30893;DHT22;17595;50.884;4.346;2022-10-20T02:32:56;15.40;99.90
30893;DHT22;17595;50.884;4.346;2022-10-20T02:35:26;15.50;99.90
30893;DHT22;17595;50.884;4.346;2022-10-20T02:37:53;15.60;99.90
30893;DHT22;17595;50.884;4.346;2022-10-20T02:40:19;15.50;99.90
30893;DHT22;17595;50.884;4.346;2022-10-20T02:42:46;15.50;99.90
30893;DHT22;17595;50.884;4.346;2022-10-20T02:45:12;15.50;99.90
30893;DHT22;17595;50.884;4.346;2022-10-20T02:47:37;15.50;99.90
30893;DHT22;17595;50.884;4.346;2022-10-20T02:50:04;15.50;99.90
30893;DHT22;17595;50.884;4.346;2022-10-20T02:52:30;15.40;99.90
30893;DHT22;17595;50.884;4.346;2022-10-20T02:54:56;15.30;99.90
30893;DHT22;17595;50.884;4.346;2022-10-20T02:57:21;15.40;99.90
30893;DHT22;17595;50.884;4.346;2022-10-20T02:59:47;15.40;99.90
30893;DHT22;17595;50.884;4.346;2022-10-20T03:02:13;15.30;99.90
30893;DHT22;17595;50.884;4.346;2022-10-20T03:04:38;15.30;99.90
30893;DHT22;17595;50.884;4.346;2022-10-20T03:07:04;15.40;99.90
30893;DHT22;17595;50.884;4.346;2022-10-20T03:09:29;15.50;99.90
30893;DHT22;17595;50.884;4.346;2022-10-20T03:11:55;15.50;99.90
30893;DHT22;17595;50.884;4.346;2022-10-20T03:14:21;15.40;99.90
30893;DHT22;17595;50.884;4.346;2022-10-20T03:16:46;15.50;99.90
30893;DHT22;17595;50.884;4.346;2022-10-20T03:19:12;15.50;99.90
30893;DHT22;17595;50.884;4.346;2022-10-20T03:21:37;15.50;99.90
30893;DHT22;17595;50.884;4.346;2022-10-20T03:24:03;15.30;99.90
30893;DHT22;17595;50.884;4.346;2022-10-20T03:26:29;15.20;99.90
30893;DHT22;17595;50.884;4.346;2022-10-20T03:28:54;15.20;99.90
30893;DHT22;17595;50.884;4.346;2022-10-20T03:31:20;15.30;99.90
30893;DHT22;17595;50.884;4.346;2022-10-20T03:33:45;15.30;99.90
30893;DHT22;17595;50.884;4.346;2022-10-20T03:36:11;15.20;99.90
30893;DHT22;17595;50.884;4.346;2022-10-20T03:38:39;15.20;99.90
30893;DHT22;17595;50.884;4.346;2022-10-20T03:41:04;15.20;99.90
30893;DHT22;17595;50.884;4.346;2022-10-20T03:43:30;15.30;99.90
30893;DHT22;17595;50.884;4.346;2022-10-20T03:46:04;15.30;99.90
30893;DHT22;17595;50.884;4.346;2022-10-20T03:48:30;15.30;99.90
30893;DHT22;17595;50.884;4.346;2022-10-20T03:50:56;15.30;99.90
30893;DHT22;17595;50.884;4.346;2022-10-20T03:53:21;15.30;99.90
30893;DHT22;17595;50.884;4.346;2022-10-20T03:55:47;15.30;99.90
30893;DHT22;17595;50.884;4.346;2022-10-20T03:58:12;15.20;99.90
30893;DHT22;17595;50.884;4.346;2022-10-20T04:00:38;15.20;99.90
30893;DHT22;17595;50.884;4.346;2022-10-20T04:03:03;15.20;99.90
30893;DHT22;17595;50.884;4.346;2022-10-20T04:05:29;15.20;99.90
30893;DHT22;17595;50.884;4.346;2022-10-20T04:07:55;15.30;99.90
30893;DHT22;17595;50.884;4.346;2022-10-20T04:10:20;15.30;99.90
30893;DHT22;17595;50.884;4.346;2022-10-20T04:12:46;15.30;99.90
30893;DHT22;17595;50.884;4.346;2022-10-20T04:15:11;15.20;99.90
30893;DHT22;17595;50.884;4.346;2022-10-20T04:17:37;15.20;99.90
30893;DHT22;17595;50.884;4.346;2022-10-20T04:20:04;15.00;99.90
30893;DHT22;17595;50.884;4.346;2022-10-20T04:24:56;15.20;99.90
30893;DHT22;17595;50.884;4.346;2022-10-20T04:29:48;15.00;99.90
30893;DHT22;17595;50.884;4.346;2022-10-20T04:34:39;15.10;99.90
30893;DHT22;17595;50.884;4.346;2022-10-20T04:39:31;15.10;99.90
30893;DHT22;17595;50.884;4.346;2022-10-20T04:41:56;15.00;99.90
30893;DHT22;17595;50.884;4.346;2022-10-20T04:44:22;15.00;99.90
30893;DHT22;17595;50.884;4.346;2022-10-20T04:46:48;15.00;99.90
30893;DHT22;17595;50.884;4.346;2022-10-20T04:49:13;15.00;99.90
30893;DHT22;17595;50.884;4.346;2022-10-20T04:51:39;15.10;99.90
30893;DHT22;17595;50.884;4.346;2022-10-20T04:54:05;15.20;99.90
30893;DHT22;17595;50.884;4.346;2022-10-20T04:56:30;15.20;99.90
30893;DHT22;17595;50.884;4.346;2022-10-20T04:58:57;15.20;99.90
30893;DHT22;17595;50.884;4.346;2022-10-20T05:01:26;15.10;99.90
30893;DHT22;17595;50.884;4.346;2022-10-20T05:03:51;15.20;99.90
30893;DHT22;17595;50.884;4.346;2022-10-20T05:06:23;15.20;99.90
30893;DHT22;17595;50.884;4.346;2022-10-20T05:08:53;15.20;99.90
30893;DHT22;17595;50.884;4.346;2022-10-20T05:11:20;15.20;99.90
30893;DHT22;17595;50.884;4.346;2022-10-20T05:13:47;15.20;99.90
30893;DHT22;17595;50.884;4.346;2022-10-20T05:16:13;15.20;99.90
30893;DHT22;17595;50.884;4.346;2022-10-20T05:18:39;15.30;99.90
30893;DHT22;17595;50.884;4.346;2022-10-20T05:23:31;15.40;99.90
30893;DHT22;17595;50.884;4.346;2022-10-20T05:25:57;15.40;99.90
30893;DHT22;17595;50.884;4.346;2022-10-20T05:28:25;15.30;99.90
30893;DHT22;17595;50.884;4.346;2022-10-20T05:30:51;15.40;99.90
30893;DHT22;17595;50.884;4.346;2022-10-20T05:33:16;15.50;99.90
30893;DHT22;17595;50.884;4.346;2022-10-20T05:35:42;15.40;99.90
30893;DHT22;17595;50.884;4.346;2022-10-20T05:38:07;15.40;99.90
30893;DHT22;17595;50.884;4.346;2022-10-20T05:40:33;15.30;99.90
30893;DHT22;17595;50.884;4.346;2022-10-20T05:42:58;15.30;99.90
30893;DHT22;17595;50.884;4.346;2022-10-20T05:45:24;15.40;99.90
30893;DHT22;17595;50.884;4.346;2022-10-20T05:47:49;15.50;99.90
30893;DHT22;17595;50.884;4.346;2022-10-20T05:50:15;15.50;99.90
30893;DHT22;17595;50.884;4.346;2022-10-20T05:52:41;15.50;99.90
30893;DHT22;17595;50.884;4.346;2022-10-20T05:55:07;15.50;99.90
30893;DHT22;17595;50.884;4.346;2022-10-20T05:57:33;15.50;99.90
30893;DHT22;17595;50.884;4.346;2022-10-20T05:59:58;15.50;99.90
30893;DHT22;17595;50.884;4.346;2022-10-20T06:02:24;15.40;99.90
30893;DHT22;17595;50.884;4.346;2022-10-20T06:04:49;15.50;99.90
30893;DHT22;17595;50.884;4.346;2022-10-20T06:07:15;15.40;99.90
30893;DHT22;17595;50.884;4.346;2022-10-20T06:09:40;15.40;99.90
30893;DHT22;17595;50.884;4.346;2022-10-20T06:12:06;15.50;99.90
30893;DHT22;17595;50.884;4.346;2022-10-20T06:14:32;15.60;99.90
30893;DHT22;17595;50.884;4.346;2022-10-20T06:16:57;15.50;99.90
30893;DHT22;17595;50.884;4.346;2022-10-20T06:19:23;15.60;99.90
30893;DHT22;17595;50.884;4.346;2022-10-20T06:21:49;15.70;99.90
30893;DHT22;17595;50.884;4.346;2022-10-20T06:24:15;15.80;99.90
30893;DHT22;17595;50.884;4.346;2022-10-20T06:26:42;15.80;99.90
30893;DHT22;17595;50.884;4.346;2022-10-20T06:29:13;15.70;99.90
30893;DHT22;17595;50.884;4.346;2022-10-20T06:31:45;15.80;99.90
30893;DHT22;17595;50.884;4.346;2022-10-20T06:34:17;15.70;99.90
30893;DHT22;17595;50.884;4.346;2022-10-20T06:36:43;15.80;99.90
30893;DHT22;17595;50.884;4.346;2022-10-20T06:39:17;15.80;99.90
30893;DHT22;17595;50.884;4.346;2022-10-20T06:41:49;15.80;99.90
30893;DHT22;17595;50.884;4.346;2022-10-20T06:44:19;15.80;99.90
30893;DHT22;17595;50.884;4.346;2022-10-20T06:46:45;15.90;99.90
30893;DHT22;17595;50.884;4.346;2022-10-20T06:49:11;15.90;99.90
30893;DHT22;17595;50.884;4.346;2022-10-20T06:51:37;15.90;99.90
30893;DHT22;17595;50.884;4.346;2022-10-20T06:54:03;15.90;99.90
30893;DHT22;17595;50.884;4.346;2022-10-20T06:56:32;15.90;99.90
30893;DHT22;17595;50.884;4.346;2022-10-20T06:58:58;15.90;99.90
30893;DHT22;17595;50.884;4.346;2022-10-20T07:01:27;15.90;99.90
30893;DHT22;17595;50.884;4.346;2022-10-20T07:03:56;16.00;99.90
30893;DHT22;17595;50.884;4.346;2022-10-20T07:06:30;16.10;99.90
30893;DHT22;17595;50.884;4.346;2022-10-20T07:08:57;16.00;99.90
30893;DHT22;17595;50.884;4.346;2022-10-20T07:11:25;16.10;99.90
30893;DHT22;17595;50.884;4.346;2022-10-20T07:13:51;16.10;99.90
30893;DHT22;17595;50.884;4.346;2022-10-20T07:16:20;16.10;99.90
30893;DHT22;17595;50.884;4.346;2022-10-20T07:18:46;16.20;99.90
30893;DHT22;17595;50.884;4.346;2022-10-20T07:21:14;16.30;99.90
30893;DHT22;17595;50.884;4.346;2022-10-20T07:23:40;16.30;99.90
30893;DHT22;17595;50.884;4.346;2022-10-20T07:26:14;16.30;99.90
30893;DHT22;17595;50.884;4.346;2022-10-20T07:28:41;16.30;99.90
30893;DHT22;17595;50.884;4.346;2022-10-20T07:31:13;16.30;99.90
30893;DHT22;17595;50.884;4.346;2022-10-20T07:33:40;16.50;99.90
30893;DHT22;17595;50.884;4.346;2022-10-20T07:36:18;16.80;99.90
30893;DHT22;17595;50.884;4.346;2022-10-20T07:38:45;16.80;99.90
30893;DHT22;17595;50.884;4.346;2022-10-20T07:41:11;16.90;99.90
30893;DHT22;17595;50.884;4.346;2022-10-20T07:43:37;16.90;99.90
30893;DHT22;17595;50.884;4.346;2022-10-20T07:46:03;17.10;99.90
30893;DHT22;17595;50.884;4.346;2022-10-20T07:48:29;17.20;99.90
30893;DHT22;17595;50.884;4.346;2022-10-20T07:53:47;17.10;99.90
30893;DHT22;17595;50.884;4.346;2022-10-20T07:56:14;17.10;99.90
30893;DHT22;17595;50.884;4.346;2022-10-20T07:58:40;17.20;99.90
30893;DHT22;17595;50.884;4.346;2022-10-20T08:01:06;17.20;99.90
30893;DHT22;17595;50.884;4.346;2022-10-20T08:03:32;17.20;99.90
30893;DHT22;17595;50.884;4.346;2022-10-20T08:05:57;17.20;99.90
30893;DHT22;17595;50.884;4.346;2022-10-20T08:08:23;17.40;99.90
30893;DHT22;17595;50.884;4.346;2022-10-20T08:10:49;17.40;99.90
30893;DHT22;17595;50.884;4.346;2022-10-20T08:13:15;17.60;99.90
30893;DHT22;17595;50.884;4.346;2022-10-20T08:15:40;17.60;99.90
30893;DHT22;17595;50.884;4.346;2022-10-20T08:18:06;17.70;99.90
30893;DHT22;17595;50.884;4.346;2022-10-20T08:20:32;17.70;99.90
30893;DHT22;17595;50.884;4.346;2022-10-20T08:22:58;17.60;99.90
30893;DHT22;17595;50.884;4.346;2022-10-20T08:25:23;17.70;99.90
30893;DHT22;17595;50.884;4.346;2022-10-20T08:27:49;17.70;99.90
30893;DHT22;17595;50.884;4.346;2022-10-20T08:30:15;17.80;99.90
30893;DHT22;17595;50.884;4.346;2022-10-20T08:32:41;17.80;99.90
30893;DHT22;17595;50.884;4.346;2022-10-20T08:35:07;17.90;99.90
30893;DHT22;17595;50.884;4.346;2022-10-20T08:37:33;17.80;99.90
30893;DHT22;17595;50.884;4.346;2022-10-20T08:39:59;17.80;99.90
30893;DHT22;17595;50.884;4.346;2022-10-20T08:42:25;17.80;99.90
30893;DHT22;17595;50.884;4.346;2022-10-20T08:44:56;17.80;99.90
30893;DHT22;17595;50.884;4.346;2022-10-20T08:47:35;17.80;99.90
30893;DHT22;17595;50.884;4.346;2022-10-20T08:50:05;17.80;99.90
30893;DHT22;17595;50.884;4.346;2022-10-20T08:52:33;17.80;99.90
30893;DHT22;17595;50.884;4.346;2022-10-20T08:55:02;17.90;99.90
30893;DHT22;17595;50.884;4.346;2022-10-20T08:57:30;17.90;99.90
30893;DHT22;17595;50.884;4.346;2022-10-20T09:00:29;17.80;99.90
30893;DHT22;17595;50.884;4.346;2022-10-20T09:03:00;17.70;99.90
30893;DHT22;17595;50.884;4.346;2022-10-20T09:05:30;17.70;99.90
30893;DHT22;17595;50.884;4.346;2022-10-20T09:07:57;17.70;99.90
30893;DHT22;17595;50.884;4.346;2022-10-20T09:10:37;17.70;99.90
30893;DHT22;17595;50.884;4.346;2022-10-20T09:13:33;17.70;99.90
30893;DHT22;17595;50.884;4.346;2022-10-20T09:16:05;17.70;99.90
30893;DHT22;17595;50.884;4.346;2022-10-20T09:18:31;17.80;99.90
30893;DHT22;17595;50.884;4.346;2022-10-20T09:20:59;17.80;99.90
30893;DHT22;17595;50.884;4.346;2022-10-20T09:23:45;17.90;99.90
30893;DHT22;17595;50.884;4.346;2022-10-20T09:26:41;17.90;99.90
30893;DHT22;17595;50.884;4.346;2022-10-20T09:29:15;17.90;99.90
30893;DHT22;17595;50.884;4.346;2022-10-20T09:31:50;18.10;99.90
30893;DHT22;17595;50.884;4.346;2022-10-20T09:34:33;18.10;99.90
30893;DHT22;17595;50.884;4.346;2022-10-20T09:37:03;18.10;99.90
30893;DHT22;17595;50.884;4.346;2022-10-20T09:42:06;18.10;99.90
30893;DHT22;17595;50.884;4.346;2022-10-20T09:45:11;18.10;99.90
30893;DHT22;17595;50.884;4.346;2022-10-20T09:47:45;18.10;99.90
30893;DHT22;17595;50.884;4.346;2022-10-20T09:50:25;18.30;99.90
30893;DHT22;17595;50.884;4.346;2022-10-20T09:52:51;18.40;99.90
30893;DHT22;17595;50.884;4.346;2022-10-20T09:55:32;18.30;99.90
30893;DHT22;17595;50.884;4.346;2022-10-20T09:58:01;18.30;99.90
30893;DHT22;17595;50.884;4.346;2022-10-20T10:00:36;18.20;99.90
30893;DHT22;17595;50.884;4.346;2022-10-20T10:03:09;18.20;99.90
30893;DHT22;17595;50.884;4.346;2022-10-20T10:05:34;18.20;99.90
30893;DHT22;17595;50.884;4.346;2022-10-20T10:08:00;18.30;99.90
30893;DHT22;17595;50.884;4.346;2022-10-20T10:10:29;18.30;99.90
30893;DHT22;17595;50.884;4.346;2022-10-20T10:12:59;18.50;99.90
30893;DHT22;17595;50.884;4.346;2022-10-20T10:15:33;18.60;99.90
30893;DHT22;17595;50.884;4.346;2022-10-20T10:18:11;18.70;99.90
30893;DHT22;17595;50.884;4.346;2022-10-20T10:20:38;18.70;99.90
30893;DHT22;17595;50.884;4.346;2022-10-20T10:23:21;18.70;99.90
30893;DHT22;17595;50.884;4.346;2022-10-20T10:25:48;18.80;99.90
30893;DHT22;17595;50.884;4.346;2022-10-20T10:31:23;18.80;99.90
30893;DHT22;17595;50.884;4.346;2022-10-20T10:34:01;19.00;99.90
30893;DHT22;17595;50.884;4.346;2022-10-20T10:36:42;18.90;99.90
30893;DHT22;17595;50.884;4.346;2022-10-20T10:39:13;18.90;99.90
30893;DHT22;17595;50.884;4.346;2022-10-20T10:47:34;19.20;99.90
30893;DHT22;17595;50.884;4.346;2022-10-20T10:50:11;19.40;99.90
30893;DHT22;17595;50.884;4.346;2022-10-20T10:53:07;19.50;99.90
30893;DHT22;17595;50.884;4.346;2022-10-20T10:56:03;19.60;99.90
30893;DHT22;17595;50.884;4.346;2022-10-20T10:58:41;19.60;99.90
30893;DHT22;17595;50.884;4.346;2022-10-20T11:10:17;19.50;99.90
30893;DHT22;17595;50.884;4.346;2022-10-20T11:26:46;20.00;99.90
30893;DHT22;17595;50.884;4.346;2022-10-20T11:29:36;20.10;99.90
30893;DHT22;17595;50.884;4.346;2022-10-20T11:32:15;20.10;99.90
30893;DHT22;17595;50.884;4.346;2022-10-20T11:37:44;20.20;99.90
30893;DHT22;17595;50.884;4.346;2022-10-20T11:40:22;20.10;99.90
30893;DHT22;17595;50.884;4.346;2022-10-20T11:45:46;20.00;99.90
30893;DHT22;17595;50.884;4.346;2022-10-20T11:48:30;20.10;99.90
30893;DHT22;17595;50.884;4.346;2022-10-20T11:51:14;19.80;99.90
30893;DHT22;17595;50.884;4.346;2022-10-20T11:54:25;19.90;99.90
30893;DHT22;17595;50.884;4.346;2022-10-20T11:57:16;19.90;99.90
30893;DHT22;17595;50.884;4.346;2022-10-20T12:00:12;20.20;99.90
30893;DHT22;17595;50.884;4.346;2022-10-20T12:02:51;20.20;99.90
30893;DHT22;17595;50.884;4.346;2022-10-20T12:16:02;20.30;99.90
30893;DHT22;17595;50.884;4.346;2022-10-20T12:18:30;20.20;99.90
30893;DHT22;17595;50.884;4.346;2022-10-20T12:21:00;20.00;99.90
30893;DHT22;17595;50.884;4.346;2022-10-20T12:28:57;20.20;99.90
30893;DHT22;17595;50.884;4.346;2022-10-20T12:31:24;20.30;99.90
30893;DHT22;17595;50.884;4.346;2022-10-20T12:38:46;19.90;99.90
30893;DHT22;17595;50.884;4.346;2022-10-20T12:43:57;19.80;99.90
30893;DHT22;17595;50.884;4.346;2022-10-20T12:46:26;19.90;99.90
30893;DHT22;17595;50.884;4.346;2022-10-20T12:48:57;20.00;99.90
30893;DHT22;17595;50.884;4.346;2022-10-20T12:51:37;20.00;99.90
30893;DHT22;17595;50.884;4.346;2022-10-20T12:54:20;19.90;99.90
30893;DHT22;17595;50.884;4.346;2022-10-20T12:56:48;20.00;99.90
30893;DHT22;17595;50.884;4.346;2022-10-20T13:04:58;19.80;99.90
30893;DHT22;17595;50.884;4.346;2022-10-20T13:17:58;19.90;99.90
30893;DHT22;17595;50.884;4.346;2022-10-20T13:20:45;20.00;99.90
30893;DHT22;17595;50.884;4.346;2022-10-20T13:23:15;20.00;99.90
30893;DHT22;17595;50.884;4.346;2022-10-20T13:25:49;20.10;99.90
30893;DHT22;17595;50.884;4.346;2022-10-20T13:28:24;20.30;99.90
30893;DHT22;17595;50.884;4.346;2022-10-20T13:36:06;20.30;99.90
30893;DHT22;17595;50.884;4.346;2022-10-20T13:38:49;20.50;99.90
30893;DHT22;17595;50.884;4.346;2022-10-20T13:44:05;20.30;99.90
30893;DHT22;17595;50.884;4.346;2022-10-20T13:46:53;20.10;99.90
30893;DHT22;17595;50.884;4.346;2022-10-20T13:52:07;20.00;99.90
30893;DHT22;17595;50.884;4.346;2022-10-20T13:54:36;20.00;99.90
30893;DHT22;17595;50.884;4.346;2022-10-20T13:57:03;20.00;99.90
30893;DHT22;17595;50.884;4.346;2022-10-20T13:59:29;20.10;99.90
30893;DHT22;17595;50.884;4.346;2022-10-20T14:02:01;20.20;99.90
30893;DHT22;17595;50.884;4.346;2022-10-20T14:04:36;20.20;99.90
30893;DHT22;17595;50.884;4.346;2022-10-20T14:07:06;20.20;99.90
30893;DHT22;17595;50.884;4.346;2022-10-20T14:09:35;20.20;99.90
30893;DHT22;17595;50.884;4.346;2022-10-20T14:12:06;20.20;99.90
30893;DHT22;17595;50.884;4.346;2022-10-20T14:14:33;20.20;99.90
30893;DHT22;17595;50.884;4.346;2022-10-20T14:17:04;20.10;99.90
30893;DHT22;17595;50.884;4.346;2022-10-20T14:19:31;20.20;99.90
30893;DHT22;17595;50.884;4.346;2022-10-20T14:22:10;20.10;99.90
30893;DHT22;17595;50.884;4.346;2022-10-20T14:24:44;20.20;99.90
30893;DHT22;17595;50.884;4.346;2022-10-20T14:27:25;20.20;99.90
30893;DHT22;17595;50.884;4.346;2022-10-20T14:29:51;20.40;99.90
30893;DHT22;17595;50.884;4.346;2022-10-20T14:32:22;20.50;99.90
30893;DHT22;17595;50.884;4.346;2022-10-20T14:37:36;20.50;99.90
30893;DHT22;17595;50.884;4.346;2022-10-20T14:40:26;20.40;99.90
30893;DHT22;17595;50.884;4.346;2022-10-20T14:43:06;20.30;99.90
30893;DHT22;17595;50.884;4.346;2022-10-20T14:45:36;20.30;99.90
30893;DHT22;17595;50.884;4.346;2022-10-20T14:48:02;20.20;99.90
30893;DHT22;17595;50.884;4.346;2022-10-20T14:50:35;20.20;99.90
30893;DHT22;17595;50.884;4.346;2022-10-20T14:55:52;20.20;99.90
30893;DHT22;17595;50.884;4.346;2022-10-20T14:58:38;20.20;99.90
30893;DHT22;17595;50.884;4.346;2022-10-20T15:04:02;20.20;99.90
30893;DHT22;17595;50.884;4.346;2022-10-20T15:06:28;20.10;99.90
30893;DHT22;17595;50.884;4.346;2022-10-20T15:08:54;20.10;99.90
30893;DHT22;17595;50.884;4.346;2022-10-20T15:11:23;20.10;99.90
30893;DHT22;17595;50.884;4.346;2022-10-20T15:13:51;20.10;99.90
30893;DHT22;17595;50.884;4.346;2022-10-20T15:16:44;20.10;99.90
30893;DHT22;17595;50.884;4.346;2022-10-20T15:21:56;20.20;99.90
30893;DHT22;17595;50.884;4.346;2022-10-20T15:24:22;20.10;99.90
30893;DHT22;17595;50.884;4.346;2022-10-20T15:26:48;20.10;99.90
30893;DHT22;17595;50.884;4.346;2022-10-20T15:29:13;20.10;99.90
30893;DHT22;17595;50.884;4.346;2022-10-20T15:31:39;20.10;99.90
30893;DHT22;17595;50.884;4.346;2022-10-20T15:34:04;20.20;99.90
30893;DHT22;17595;50.884;4.346;2022-10-20T15:36:31;20.40;99.90
30893;DHT22;17595;50.884;4.346;2022-10-20T15:38:59;20.40;99.90
30893;DHT22;17595;50.884;4.346;2022-10-20T15:41:27;20.30;99.90
30893;DHT22;17595;50.884;4.346;2022-10-20T15:43:54;20.30;99.90
30893;DHT22;17595;50.884;4.346;2022-10-20T15:46:20;20.30;99.90
30893;DHT22;17595;50.884;4.346;2022-10-20T15:48:46;20.30;99.90
30893;DHT22;17595;50.884;4.346;2022-10-20T15:51:29;20.30;99.90
30893;DHT22;17595;50.884;4.346;2022-10-20T15:53:56;20.40;99.90
30893;DHT22;17595;50.884;4.346;2022-10-20T15:56:22;20.40;99.90
30893;DHT22;17595;50.884;4.346;2022-10-20T15:58:48;20.50;99.90
30893;DHT22;17595;50.884;4.346;2022-10-20T16:01:18;20.50;99.90
30893;DHT22;17595;50.884;4.346;2022-10-20T16:03:46;20.50;99.90
30893;DHT22;17595;50.884;4.346;2022-10-20T16:06:13;20.50;99.90
30893;DHT22;17595;50.884;4.346;2022-10-20T16:08:40;20.40;99.90
30893;DHT22;17595;50.884;4.346;2022-10-20T16:11:06;20.40;99.90
30893;DHT22;17595;50.884;4.346;2022-10-20T16:13:33;20.40;99.90
30893;DHT22;17595;50.884;4.346;2022-10-20T16:16:00;20.40;99.90
30893;DHT22;17595;50.884;4.346;2022-10-20T16:18:26;20.40;99.90
30893;DHT22;17595;50.884;4.346;2022-10-20T16:20:52;20.40;99.90
30893;DHT22;17595;50.884;4.346;2022-10-20T16:23:17;20.40;99.90
30893;DHT22;17595;50.884;4.346;2022-10-20T16:25:43;20.40;99.90
30893;DHT22;17595;50.884;4.346;2022-10-20T16:28:09;20.40;99.90
30893;DHT22;17595;50.884;4.346;2022-10-20T16:30:34;20.40;99.90
30893;DHT22;17595;50.884;4.346;2022-10-20T16:33:00;20.40;99.90
30893;DHT22;17595;50.884;4.346;2022-10-20T16:35:26;20.50;99.90
30893;DHT22;17595;50.884;4.346;2022-10-20T16:37:51;20.50;99.90
30893;DHT22;17595;50.884;4.346;2022-10-20T16:40:17;20.50;99.90
30893;DHT22;17595;50.884;4.346;2022-10-20T16:42:43;20.50;99.90
30893;DHT22;17595;50.884;4.346;2022-10-20T16:45:09;20.40;99.90
30893;DHT22;17595;50.884;4.346;2022-10-20T16:47:35;20.50;99.90
30893;DHT22;17595;50.884;4.346;2022-10-20T16:50:00;20.40;99.90
30893;DHT22;17595;50.884;4.346;2022-10-20T16:52:26;20.40;99.90
30893;DHT22;17595;50.884;4.346;2022-10-20T16:54:51;20.40;99.90
30893;DHT22;17595;50.884;4.346;2022-10-20T16:57:17;20.40;99.90
30893;DHT22;17595;50.884;4.346;2022-10-20T16:59:44;20.40;99.90
30893;DHT22;17595;50.884;4.346;2022-10-20T17:02:15;20.40;99.90
30893;DHT22;17595;50.884;4.346;2022-10-20T17:04:41;20.40;99.90
30893;DHT22;17595;50.884;4.346;2022-10-20T17:07:07;20.40;99.90
30893;DHT22;17595;50.884;4.346;2022-10-20T17:09:33;20.30;99.90
30893;DHT22;17595;50.884;4.346;2022-10-20T17:11:59;20.30;99.90
30893;DHT22;17595;50.884;4.346;2022-10-20T17:14:24;20.30;99.90
30893;DHT22;17595;50.884;4.346;2022-10-20T17:16:50;20.20;99.90
30893;DHT22;17595;50.884;4.346;2022-10-20T17:19:15;20.20;99.90
30893;DHT22;17595;50.884;4.346;2022-10-20T17:21:41;20.20;99.90
30893;DHT22;17595;50.884;4.346;2022-10-20T17:24:11;20.10;99.90
30893;DHT22;17595;50.884;4.346;2022-10-20T17:26:38;20.10;99.90
30893;DHT22;17595;50.884;4.346;2022-10-20T17:29:04;20.10;99.90
30893;DHT22;17595;50.884;4.346;2022-10-20T17:31:30;20.00;99.90
30893;DHT22;17595;50.884;4.346;2022-10-20T17:33:59;20.00;99.90
30893;DHT22;17595;50.884;4.346;2022-10-20T17:36:25;20.00;99.90
30893;DHT22;17595;50.884;4.346;2022-10-20T17:39:00;20.00;99.90
30893;DHT22;17595;50.884;4.346;2022-10-20T17:41:26;20.00;99.90
30893;DHT22;17595;50.884;4.346;2022-10-20T17:43:52;20.00;99.90
30893;DHT22;17595;50.884;4.346;2022-10-20T17:46:19;20.00;99.90
30893;DHT22;17595;50.884;4.346;2022-10-20T17:48:45;20.00;99.90
30893;DHT22;17595;50.884;4.346;2022-10-20T17:51:16;20.00;99.90
30893;DHT22;17595;50.884;4.346;2022-10-20T17:53:45;19.90;99.90
30893;DHT22;17595;50.884;4.346;2022-10-20T17:56:17;19.90;99.90
30893;DHT22;17595;50.884;4.346;2022-10-20T17:58:45;19.90;99.90
30893;DHT22;17595;50.884;4.346;2022-10-20T18:03:36;19.90;99.90
30893;DHT22;17595;50.884;4.346;2022-10-20T18:06:09;19.90;99.90
30893;DHT22;17595;50.884;4.346;2022-10-20T18:08:35;19.90;99.90
30893;DHT22;17595;50.884;4.346;2022-10-20T18:11:01;19.90;99.90
30893;DHT22;17595;50.884;4.346;2022-10-20T18:13:26;20.10;99.90
30893;DHT22;17595;50.884;4.346;2022-10-20T18:15:52;20.10;99.90
30893;DHT22;17595;50.884;4.346;2022-10-20T18:18:17;20.20;99.90
30893;DHT22;17595;50.884;4.346;2022-10-20T18:20:53;20.10;99.90
30893;DHT22;17595;50.884;4.346;2022-10-20T18:23:19;20.10;99.90